createdAt,value
2018-04-19T00:01:58.089Z,17.10
2018-04-19T00:04:24.094Z,18.03
2018-04-19T00:06:50.085Z,17.10
2018-04-19T00:09:16.818Z,20.10
2018-04-19T00:11:43.550Z,15.60
2018-04-19T00:14:09.564Z,17.47
2018-04-19T00:16:35.585Z,19.27
2018-04-19T00:19:01.585Z,19.77
2018-04-19T00:21:28.325Z,23.27
2018-04-19T00:23:54.309Z,17.17
2018-04-19T00:26:20.338Z,24.30
2018-04-19T00:28:46.358Z,14.80
2018-04-19T00:31:12.372Z,17.13
2018-04-19T00:33:38.386Z,16.37
2018-04-19T00:36:04.411Z,20.37
2018-04-19T00:38:30.422Z,17.77
2018-04-19T00:40:56.435Z,16.77
2018-04-19T00:43:22.450Z,18.63
2018-04-19T00:45:49.203Z,19.77
2018-04-19T00:48:15.960Z,18.90
2018-04-19T00:50:42.718Z,18.67
2018-04-19T00:53:09.484Z,16.57
2018-04-19T00:55:35.516Z,21.23
2018-04-19T00:58:01.531Z,24.23
2018-04-19T01:00:27.555Z,21.20
2018-04-19T01:02:53.559Z,17.80
2018-04-19T01:05:19.572Z,23.37
2018-04-19T01:07:45.569Z,20.83
2018-04-19T01:10:11.574Z,18.20
2018-04-19T01:12:37.582Z,19.67
2018-04-19T01:15:03.610Z,18.63
2018-04-19T01:17:29.666Z,18.83
2018-04-19T01:19:55.695Z,20.73
2018-04-19T01:22:21.725Z,21.30
2018-04-19T01:24:47.770Z,15.27
2018-04-19T01:27:13.801Z,22.63
2018-04-19T01:29:39.819Z,21.33
2018-04-19T01:32:05.872Z,18.97
2018-04-19T01:34:31.886Z,19.57
2018-04-19T01:36:57.917Z,22.60
2018-04-19T01:39:24.684Z,18.13
2018-04-19T01:41:50.718Z,18.10
2018-04-19T01:44:16.746Z,21.57
2018-04-19T01:46:42.774Z,19.27
2018-04-19T01:49:09.551Z,21.30
2018-04-19T01:51:35.590Z,19.70
2018-04-19T01:54:01.607Z,19.17
2018-04-19T01:56:27.639Z,16.10
2018-04-19T01:58:53.662Z,21.97
2018-04-19T02:01:20.431Z,19.13
2018-04-19T02:03:46.454Z,21.47
2018-04-19T02:06:13.210Z,18.47
2018-04-19T02:08:39.991Z,26.33
2018-04-19T02:11:06.024Z,24.50
2018-04-19T02:13:32.075Z,22.97
2018-04-19T02:15:58.093Z,19.40
2018-04-19T02:18:24.118Z,21.57
2018-04-19T02:20:50.149Z,18.23
2018-04-19T02:23:16.170Z,18.33
2018-04-19T02:25:42.932Z,22.50
2018-04-19T02:28:08.958Z,19.33
2018-04-19T02:30:42.659Z,17.50
2018-04-19T02:33:08.684Z,21.43
2018-04-19T02:35:34.705Z,22.53
2018-04-19T02:38:00.722Z,17.27
2018-04-19T02:40:26.735Z,18.40
2018-04-19T02:42:52.748Z,21.20
2018-04-19T02:45:19.501Z,20.77
2018-04-19T02:47:46.266Z,19.20
2018-04-19T02:50:12.274Z,17.73
2018-04-19T02:52:38.305Z,19.20
2018-04-19T02:55:04.314Z,18.37
2018-04-19T02:57:30.335Z,17.30
2018-04-19T02:59:56.366Z,18.60
2018-04-19T03:02:22.391Z,19.73
2018-04-19T03:04:48.402Z,17.37
2018-04-19T03:07:15.160Z,22.90
2018-04-19T03:09:41.908Z,17.57
2018-04-19T03:12:08.686Z,20.93
2018-04-19T03:14:34.693Z,20.23
2018-04-19T03:17:01.442Z,19.90
2018-04-19T03:19:28.201Z,17.40
2018-04-19T03:21:54.953Z,19.33
2018-04-19T03:24:21.716Z,21.57
2018-04-19T03:26:47.714Z,18.60
2018-04-19T03:29:13.741Z,19.80
2018-04-19T03:31:39.737Z,18.57
2018-04-19T03:34:05.768Z,17.83
2018-04-19T03:36:31.772Z,20.17
2018-04-19T03:38:58.529Z,16.13
2018-04-19T03:41:25.270Z,19.87
2018-04-19T03:43:51.286Z,17.10
2018-04-19T03:46:17.300Z,21.63
2018-04-19T03:48:43.325Z,18.57
2018-04-19T03:51:09.329Z,15.60
2018-04-19T03:53:36.083Z,20.77
2018-04-19T03:56:02.855Z,21.93
2018-04-19T03:58:28.941Z,17.13
2018-04-19T04:00:54.947Z,14.83
2018-04-19T04:03:20.968Z,17.37
2018-04-19T04:05:46.965Z,18.37
2018-04-19T04:08:13.766Z,27.33
2018-04-19T04:10:39.770Z,16.43
2018-04-19T04:13:06.535Z,21.73
2018-04-19T04:15:32.545Z,16.57
2018-04-19T04:18:07.634Z,18.73
2018-04-19T04:20:46.249Z,19.63
2018-04-19T04:23:24.684Z,19.70
2018-04-19T04:25:50.690Z,16.57
2018-04-19T04:28:17.442Z,17.00
2018-04-19T04:30:44.199Z,17.47
2018-04-19T04:33:10.957Z,22.10
2018-04-19T04:35:37.734Z,19.83
2018-04-19T04:38:03.806Z,17.13
2018-04-19T04:40:29.846Z,19.27
2018-04-19T04:42:55.858Z,17.97
2018-04-19T04:45:21.912Z,21.20
2018-04-19T04:47:47.934Z,16.90
2018-04-19T04:50:13.958Z,18.00
2018-04-19T04:52:39.986Z,22.70
2018-04-19T04:57:26.902Z,19.43
2018-04-19T04:59:52.974Z,17.27
2018-04-19T05:02:19.011Z,17.03
2018-04-19T05:04:45.046Z,23.07
2018-04-19T05:07:11.080Z,24.63
2018-04-19T05:09:37.119Z,23.70
2018-04-19T05:12:03.160Z,20.27
2018-04-19T05:14:29.227Z,19.07
2018-04-19T05:16:55.214Z,24.07
2018-04-19T05:19:21.242Z,21.30
2018-04-19T05:21:47.262Z,23.43
2018-04-19T05:24:14.029Z,19.10
2018-04-19T05:26:40.078Z,19.87
2018-04-19T05:29:06.141Z,20.20
2018-04-19T05:31:32.177Z,18.73
2018-04-19T05:33:58.210Z,17.80
2018-04-19T05:36:24.251Z,20.20
2018-04-19T05:38:50.269Z,18.93
2018-04-19T05:41:16.291Z,20.50
2018-04-19T05:43:42.302Z,21.20
2018-04-19T05:46:08.338Z,25.23
2018-04-19T05:48:34.365Z,18.67
2018-04-19T05:51:00.402Z,18.03
2018-04-19T05:53:27.158Z,17.47
2018-04-19T05:55:53.924Z,23.50
2018-04-19T05:58:19.946Z,18.33
2018-04-19T06:00:46.774Z,17.10
2018-04-19T06:03:12.874Z,17.13
2018-04-19T06:05:39.594Z,18.73
2018-04-19T06:08:05.636Z,23.03
2018-04-19T06:10:31.663Z,22.97
2018-04-19T06:12:58.422Z,19.80
2018-04-19T06:15:24.447Z,19.27
2018-04-19T06:17:51.225Z,22.03
2018-04-19T06:20:17.246Z,25.80
2018-04-19T06:22:43.301Z,24.47
2018-04-19T06:25:09.309Z,21.33
2018-04-19T06:27:35.347Z,19.07
2018-04-19T06:30:02.151Z,19.33
2018-04-19T06:32:28.205Z,17.87
2018-04-19T06:34:54.965Z,21.50
2018-04-19T06:37:20.997Z,17.80
2018-04-19T06:39:47.012Z,19.93
2018-04-19T06:42:13.051Z,16.70
2018-04-19T06:44:39.090Z,21.17
2018-04-19T06:47:05.138Z,17.60
2018-04-19T06:49:31.161Z,20.00
2018-04-19T06:51:57.182Z,18.00
2018-04-19T06:54:23.203Z,20.33
2018-04-19T06:56:49.231Z,18.97
2018-04-19T06:59:15.261Z,22.00
2018-04-19T07:01:41.282Z,19.00
2018-04-19T07:04:07.310Z,18.53
2018-04-19T07:06:33.386Z,16.20
2018-04-19T07:08:59.374Z,17.40
2018-04-19T07:11:26.143Z,17.40
2018-04-19T07:13:52.904Z,15.60
2018-04-19T07:16:18.928Z,17.30
2018-04-19T07:18:44.951Z,15.23
2018-04-19T07:21:11.718Z,16.77
2018-04-19T07:23:38.487Z,17.70
2018-04-19T07:26:04.513Z,17.30
2018-04-19T07:28:30.533Z,16.77
2018-04-19T07:30:57.316Z,15.80
2018-04-19T07:33:23.374Z,17.23
2018-04-19T07:35:49.397Z,15.53
2018-04-19T07:38:15.441Z,11.97
2018-04-19T07:40:41.475Z,14.90
2018-04-19T07:43:07.501Z,16.90
2018-04-19T07:45:33.524Z,20.13
2018-04-19T07:47:59.561Z,13.03
2018-04-19T07:50:25.613Z,13.60
2018-04-19T07:52:51.656Z,14.50
2018-04-19T07:55:17.674Z,16.00
2018-04-19T07:57:43.722Z,14.40
2018-04-19T08:00:09.781Z,15.53
2018-04-19T08:02:35.947Z,11.23
2018-04-19T08:05:02.723Z,15.30
2018-04-19T08:07:28.854Z,14.50
2018-04-19T08:09:54.873Z,16.70
2018-04-19T08:12:21.642Z,11.77
2018-04-19T08:14:47.670Z,12.40
2018-04-19T08:17:14.442Z,9.37
2018-04-19T08:19:40.463Z,10.63
2018-04-19T08:22:07.222Z,12.77
2018-04-19T08:24:33.308Z,12.40
2018-04-19T08:26:59.277Z,9.13
2018-04-19T08:29:26.058Z,13.43
2018-04-19T08:31:52.081Z,12.70
2018-04-19T08:34:18.108Z,11.70
2018-04-19T08:36:44.853Z,13.13
2018-04-19T08:39:11.601Z,9.07
2018-04-19T08:41:38.382Z,12.23
2018-04-19T08:44:04.406Z,11.93
2018-04-19T08:46:30.414Z,13.10
2018-04-19T08:48:56.440Z,11.50
2018-04-19T08:51:22.443Z,26.60
2018-04-19T08:53:48.461Z,8.40
2018-04-19T08:56:14.481Z,9.70
2018-04-19T08:58:40.502Z,10.03
2018-04-19T09:01:07.256Z,12.60
2018-04-19T09:03:34.026Z,9.20
2018-04-19T09:06:00.031Z,11.70
2018-04-19T09:08:26.047Z,8.57
2018-04-19T09:10:52.065Z,11.00
2018-04-19T09:13:18.078Z,13.33
2018-04-19T09:15:44.087Z,11.80
2018-04-19T09:18:10.850Z,8.80
2018-04-19T09:20:37.595Z,8.07
2018-04-19T09:23:04.353Z,11.47
2018-04-19T09:25:30.406Z,9.63
2018-04-19T09:27:56.414Z,8.20
2018-04-19T09:30:23.193Z,11.30
2018-04-19T09:32:49.234Z,17.33
2018-04-19T09:35:15.274Z,12.67
2018-04-19T09:37:41.638Z,10.13
2018-04-19T09:40:07.677Z,12.63
2018-04-19T09:42:33.709Z,7.60
2018-04-19T09:44:59.735Z,7.80
2018-04-19T09:47:25.763Z,9.73
2018-04-19T09:49:51.813Z,11.10
2018-04-19T09:52:17.833Z,9.73
2018-04-19T09:54:43.877Z,8.07
2018-04-19T09:57:09.898Z,9.60
2018-04-19T09:59:35.942Z,10.53
2018-04-19T10:02:02.841Z,8.00
2018-04-19T10:04:28.899Z,9.20
2018-04-19T10:06:55.660Z,10.20
2018-04-19T10:09:22.464Z,7.80
2018-04-19T10:11:48.487Z,9.80
2018-04-19T10:14:14.510Z,9.50
2018-04-19T10:16:40.534Z,8.90
2018-04-19T10:19:06.554Z,7.90
2018-04-19T10:21:33.327Z,14.10
2018-04-19T10:23:59.350Z,9.20
2018-04-19T10:26:25.382Z,7.13
2018-04-19T10:28:51.398Z,9.07
2018-04-19T10:31:17.418Z,10.43
2018-04-19T10:33:43.450Z,8.48
2018-04-19T10:36:09.471Z,10.57
2018-04-19T10:38:35.503Z,8.97
2018-04-19T10:41:01.539Z,9.98
2018-04-19T10:43:27.569Z,6.87
2018-04-19T10:45:53.601Z,8.73
2018-04-19T10:48:19.691Z,8.50
2018-04-19T10:50:46.474Z,7.97
2018-04-19T10:53:12.494Z,6.05
2018-04-19T10:55:38.527Z,7.53
2018-04-19T10:58:04.546Z,8.88
2018-04-19T11:00:31.327Z,8.40
2018-04-19T11:02:57.373Z,11.05
2018-04-19T11:05:23.406Z,6.53
2018-04-19T11:07:50.174Z,6.80
2018-04-19T11:10:16.226Z,7.63
2018-04-19T11:12:42.240Z,7.10
2018-04-19T11:15:08.270Z,11.05
2018-04-19T11:17:34.287Z,7.60
2018-04-19T11:20:00.306Z,7.53
2018-04-19T11:22:27.089Z,6.18
2018-04-19T11:24:53.097Z,5.53
2018-04-19T11:27:19.859Z,10.68
2018-04-19T11:29:45.887Z,8.02
2018-04-19T11:32:11.921Z,5.60
2018-04-19T11:34:37.950Z,7.20
2018-04-19T11:37:04.722Z,5.90
2018-04-19T11:39:37.778Z,6.05
2018-04-19T11:42:03.815Z,10.03
2018-04-19T11:44:31.331Z,21.33
2018-04-19T11:46:57.353Z,8.05
2018-04-19T11:49:24.105Z,10.52
2018-04-19T11:51:50.129Z,12.35
2018-04-19T11:54:16.887Z,8.20
2018-04-19T11:56:43.658Z,10.50
2018-04-19T11:59:09.689Z,6.12
2018-04-19T12:01:36.006Z,7.18
2018-04-19T12:04:02.029Z,10.85
2018-04-19T12:06:28.066Z,10.00
2018-04-19T12:08:54.821Z,12.15
2018-04-19T12:11:20.845Z,6.97
2018-04-19T12:13:47.653Z,7.82
2018-04-19T12:16:14.419Z,10.65
2018-04-19T12:18:40.453Z,8.43
2018-04-19T12:21:06.480Z,6.65
2018-04-19T12:23:32.516Z,9.05
2018-04-19T12:25:58.615Z,7.05
2018-04-19T12:28:24.602Z,8.60
2018-04-19T12:30:50.623Z,6.85
2018-04-19T12:33:16.659Z,13.07
2018-04-19T12:35:42.698Z,6.90
2018-04-19T12:38:08.761Z,8.07
2018-04-19T12:40:34.789Z,14.40
2018-04-19T12:43:00.826Z,9.70
2018-04-19T12:45:26.851Z,5.85
2018-04-19T12:47:52.879Z,11.70
2018-04-19T12:50:18.892Z,7.82
2018-04-19T12:52:44.911Z,7.03
2018-04-19T12:55:11.670Z,7.85
2018-04-19T12:57:38.426Z,7.80
2018-04-19T13:00:05.195Z,6.53
2018-04-19T13:02:31.230Z,7.35
2018-04-19T13:04:57.273Z,9.85
2018-04-19T13:07:23.329Z,7.85
2018-04-19T13:09:49.343Z,6.50
2018-04-19T13:12:15.374Z,9.10
2018-04-19T13:14:41.393Z,7.82
2018-04-19T13:17:07.422Z,5.47
2018-04-19T13:19:34.180Z,8.98
2018-04-19T13:22:00.963Z,6.62
2018-04-19T13:24:26.985Z,6.50
2018-04-19T13:26:53.007Z,11.65
2018-04-19T13:29:19.766Z,8.90
2018-04-19T13:31:45.794Z,8.57
2018-04-19T13:34:11.817Z,11.55
2018-04-19T13:36:38.577Z,11.63
2018-04-19T13:39:05.346Z,13.32
2018-04-19T13:41:31.386Z,4.75
2018-04-19T13:43:57.418Z,5.72
2018-04-19T13:46:23.446Z,6.65
2018-04-19T13:48:49.470Z,8.55
2018-04-19T13:51:16.245Z,8.77
2018-04-19T13:53:42.294Z,5.55
2018-04-19T13:56:08.346Z,8.82
2018-04-19T13:58:34.373Z,8.07
2018-04-19T14:01:00.420Z,10.70
2018-04-19T14:03:26.442Z,8.27
2018-04-19T14:05:52.517Z,18.77
2018-04-19T14:08:18.501Z,6.55
2018-04-19T14:10:44.563Z,10.23
2018-04-19T14:13:10.593Z,7.72
2018-04-19T14:15:36.625Z,6.93
2018-04-19T14:18:02.662Z,11.68
2018-04-19T14:20:28.683Z,12.40
2018-04-19T14:22:54.718Z,10.50
2018-04-19T14:25:20.733Z,6.40
2018-04-19T14:27:46.775Z,7.87
2018-04-19T14:30:12.799Z,6.80
2018-04-19T14:32:39.565Z,10.40
2018-04-19T14:35:05.600Z,12.43
2018-04-19T14:37:31.626Z,13.23
2018-04-19T14:39:57.658Z,7.40
2018-04-19T14:42:24.410Z,6.70
2018-04-19T14:44:51.196Z,7.53
2018-04-19T14:47:17.213Z,11.93
2018-04-19T14:49:43.247Z,7.63
2018-04-19T14:52:09.264Z,12.13
2018-04-19T14:54:36.036Z,10.63
2018-04-19T14:57:02.063Z,12.73
2018-04-19T14:59:28.834Z,7.85
2018-04-19T15:01:54.852Z,10.40
2018-04-19T15:04:20.878Z,9.52
2018-04-19T15:06:47.640Z,10.47
2018-04-19T15:09:13.699Z,11.53
2018-04-19T15:11:39.774Z,7.77
2018-04-19T15:14:05.809Z,9.40
2018-04-19T15:16:31.843Z,14.93
2018-04-19T15:18:57.874Z,9.30
2018-04-19T15:21:23.917Z,10.03
2018-04-19T15:23:49.966Z,8.33
2018-04-19T15:26:15.981Z,8.23
2018-04-19T15:28:42.000Z,6.03
2018-04-19T15:31:08.027Z,8.07
2018-04-19T15:33:34.049Z,11.03
2018-04-19T15:36:00.074Z,9.23
2018-04-19T15:38:26.101Z,10.70
2018-04-19T15:40:52.122Z,11.53
2018-04-19T15:43:18.895Z,14.17
2018-04-19T15:45:45.126Z,10.37
2018-04-19T15:48:11.886Z,14.07
2018-04-19T15:50:37.910Z,8.77
2018-04-19T15:53:04.674Z,7.60
2018-04-19T15:55:30.708Z,9.47
2018-04-19T15:57:57.475Z,7.97
2018-04-19T16:00:23.510Z,10.83
2018-04-19T16:02:49.533Z,9.87
2018-04-19T16:05:15.555Z,7.87
2018-04-19T16:07:42.346Z,10.13
2018-04-19T16:10:08.377Z,8.43
2018-04-19T16:12:34.399Z,10.87
2018-04-19T16:15:00.454Z,7.30
2018-04-19T16:17:26.454Z,6.00
2018-04-19T16:19:53.231Z,10.57
2018-04-19T16:22:19.282Z,6.97
2018-04-19T16:24:45.340Z,6.60
2018-04-19T16:27:11.329Z,14.33
2018-04-19T16:29:37.358Z,12.50
2018-04-19T16:32:03.386Z,7.47
2018-04-19T16:34:30.136Z,7.63
2018-04-19T16:36:56.885Z,10.30
2018-04-19T16:39:23.634Z,5.93
2018-04-19T16:41:50.406Z,11.13
2018-04-19T16:44:16.413Z,5.20
2018-04-19T16:46:43.166Z,7.67
2018-04-19T16:49:09.925Z,7.70
2018-04-19T16:51:36.680Z,10.13
2018-04-19T16:54:03.438Z,14.23
2018-04-19T16:56:30.184Z,5.53
2018-04-19T16:58:56.939Z,6.27
2018-04-19T17:01:23.707Z,8.37
2018-04-19T17:03:49.727Z,8.80
2018-04-19T17:06:16.703Z,5.93
2018-04-19T17:08:42.791Z,6.47
2018-04-19T17:11:08.875Z,6.83
2018-04-19T17:13:34.888Z,8.43
2018-04-19T17:16:01.663Z,6.60
2018-04-19T17:18:27.674Z,6.50
2018-04-19T17:20:54.426Z,7.00
2018-04-19T17:23:21.175Z,7.47
2018-04-19T17:25:47.939Z,6.43
2018-04-19T17:28:13.942Z,10.30
2018-04-19T17:30:40.010Z,11.13
2018-04-19T17:33:06.043Z,5.03
2018-04-19T17:35:32.814Z,7.67
2018-04-19T17:37:58.839Z,11.63
2018-04-19T17:40:24.896Z,11.73
2018-04-19T17:42:50.938Z,8.33
2018-04-19T17:45:16.950Z,9.23
2018-04-19T17:47:42.996Z,10.50
2018-04-19T17:50:09.030Z,14.07
2018-04-19T17:52:35.069Z,8.10
2018-04-19T17:55:01.090Z,11.50
2018-04-19T17:57:34.038Z,7.77
2018-04-19T18:00:00.051Z,8.63
2018-04-19T18:02:26.087Z,5.40
2018-04-19T18:04:52.106Z,8.80
2018-04-19T18:07:18.131Z,5.87
2018-04-19T18:09:44.180Z,8.40
2018-04-19T18:12:10.207Z,9.07
2018-04-19T18:14:36.241Z,10.20
2018-04-19T18:17:02.276Z,6.60
2018-04-19T18:19:28.295Z,11.70
2018-04-19T18:21:55.101Z,15.13
2018-04-19T18:24:21.137Z,11.10
2018-04-19T18:26:47.165Z,9.47
2018-04-19T18:29:13.202Z,8.27
2018-04-19T18:31:39.258Z,7.00
2018-04-19T18:34:05.286Z,10.20
2018-04-19T18:36:31.326Z,10.43
2018-04-19T18:38:57.370Z,13.30
2018-04-19T18:41:23.383Z,8.93
2018-04-19T18:43:49.393Z,8.73
2018-04-19T18:46:15.466Z,7.23
2018-04-19T18:48:41.493Z,5.50
2018-04-19T18:51:07.511Z,11.53
2018-04-19T18:53:33.534Z,5.80
2018-04-19T18:55:59.571Z,8.63
2018-04-19T18:58:25.586Z,6.77
2018-04-19T19:00:51.795Z,7.10
2018-04-19T19:03:17.819Z,6.20
2018-04-19T19:05:43.853Z,4.13
2018-04-19T19:08:09.872Z,9.10
2018-04-19T19:10:35.954Z,6.80
2018-04-19T19:13:01.985Z,9.10
2018-04-19T19:18:50.098Z,3.60
2018-04-19T19:21:16.875Z,8.67
2018-04-19T19:23:42.887Z,4.87
2018-04-19T19:26:09.698Z,6.43
2018-04-19T19:28:35.829Z,5.63
2018-04-19T19:31:01.862Z,4.63
2018-04-19T19:33:27.906Z,5.57
2018-04-19T19:35:53.939Z,8.03
2018-04-19T19:38:19.981Z,8.27
2018-04-19T19:40:46.002Z,5.07
2018-04-19T19:43:12.038Z,9.50
2018-04-19T19:48:08.744Z,5.50
2018-04-19T19:50:34.793Z,7.63
2018-04-19T19:53:01.667Z,10.53
2018-04-19T19:55:28.475Z,7.50
2018-04-19T19:57:54.515Z,12.80
2018-04-19T20:00:20.706Z,8.70
2018-04-19T20:02:46.735Z,12.07
2018-04-19T20:05:12.754Z,7.87
2018-04-19T20:07:39.594Z,11.70
2018-04-19T20:10:05.622Z,8.63
2018-04-19T20:12:31.650Z,8.93
2018-04-19T20:14:57.803Z,5.30
2018-04-19T20:17:23.818Z,7.57
2018-04-19T20:19:49.847Z,10.33
2018-04-19T20:22:15.889Z,5.70
2018-04-19T20:24:41.908Z,9.63
2018-04-19T20:27:07.917Z,8.23
2018-04-19T20:29:33.937Z,8.17
2018-04-19T20:32:00.701Z,11.40
2018-04-19T20:34:26.785Z,9.50
2018-04-19T20:36:52.808Z,10.23
2018-04-19T20:39:18.843Z,6.50
2018-04-19T20:41:44.871Z,8.77
2018-04-19T20:44:10.889Z,7.33
2018-04-19T20:46:36.897Z,9.87
2018-04-19T20:49:03.682Z,8.30
2018-04-19T20:51:29.686Z,7.87
2018-04-19T20:53:56.452Z,13.43
2018-04-19T20:56:22.531Z,9.97
2018-04-19T20:58:48.550Z,13.50
2018-04-19T21:01:14.555Z,11.43
2018-04-19T21:03:41.329Z,8.60
2018-04-19T21:06:07.410Z,11.53
2018-04-19T21:08:33.530Z,7.73
2018-04-19T21:11:06.405Z,5.87
2018-04-19T21:13:32.970Z,8.23
2018-04-19T21:15:59.003Z,7.00
2018-04-19T21:18:25.027Z,7.77
2018-04-19T21:20:51.029Z,12.20
2018-04-19T21:23:17.777Z,6.90
2018-04-19T21:25:44.543Z,8.63
2018-04-19T21:28:10.550Z,11.90
2018-04-19T21:30:36.573Z,5.17
2018-04-19T21:33:02.603Z,8.10
2018-04-19T21:35:28.624Z,7.50
2018-04-19T21:37:54.622Z,5.43
2018-04-19T21:40:21.383Z,5.33
2018-04-19T21:42:47.393Z,8.83
2018-04-19T21:45:14.154Z,10.03
2018-04-19T21:47:40.898Z,6.43
2018-04-19T21:50:06.911Z,5.80
2018-04-19T21:52:32.931Z,6.63
2018-04-19T21:54:58.952Z,11.20
2018-04-19T21:57:24.962Z,6.50
2018-04-19T21:59:51.745Z,5.40
2018-04-19T22:02:17.764Z,7.30
2018-04-19T22:04:43.787Z,6.93
2018-04-19T22:07:09.800Z,7.90
2018-04-19T22:09:36.562Z,15.83
2018-04-19T22:12:03.306Z,9.90
2018-04-19T22:14:30.075Z,7.13
2018-04-19T22:16:56.832Z,5.80
2018-04-19T22:19:22.870Z,7.20
2018-04-19T22:21:48.898Z,11.80
2018-04-19T22:24:15.646Z,11.87
2018-04-19T22:26:41.743Z,6.67
2018-04-19T22:29:07.775Z,7.40
2018-04-19T22:31:33.790Z,6.60
2018-04-19T22:33:59.803Z,6.20
2018-04-19T22:36:25.821Z,8.13
2018-04-19T22:38:52.562Z,5.03
2018-04-19T22:41:18.579Z,5.90
2018-04-19T22:43:44.610Z,7.60
2018-04-19T22:46:10.614Z,6.43
2018-04-19T22:48:36.623Z,8.03
2018-04-19T22:51:03.417Z,7.20
2018-04-19T22:53:29.421Z,7.07
2018-04-19T22:55:55.522Z,7.27
2018-04-19T22:58:21.535Z,13.10
2018-04-19T23:00:47.546Z,6.57
2018-04-19T23:03:13.559Z,7.87
2018-04-19T23:05:39.578Z,10.83
2018-04-19T23:08:06.334Z,6.53
2018-04-19T23:10:33.094Z,5.07
2018-04-19T23:12:59.855Z,3.93
2018-04-19T23:15:25.857Z,6.50
2018-04-19T23:17:51.875Z,7.33
2018-04-19T23:20:17.894Z,7.30
2018-04-19T23:22:43.915Z,3.60
2018-04-19T23:25:09.966Z,3.47
2018-04-19T23:27:35.957Z,5.20
2018-04-19T23:30:02.779Z,6.80
2018-04-19T23:32:28.823Z,6.27
2018-04-19T23:34:54.826Z,8.40
2018-04-19T23:37:20.831Z,5.63
2018-04-19T23:39:46.842Z,4.90
2018-04-19T23:42:13.599Z,7.13
2018-04-19T23:44:40.347Z,8.33
2018-04-19T23:47:07.108Z,12.57
2018-04-19T23:49:33.903Z,5.10
2018-04-19T23:51:59.909Z,6.57
2018-04-19T23:54:25.909Z,8.60
2018-04-19T23:56:51.922Z,5.70
2018-04-19T23:59:17.926Z,12.83
